Tulsa, OK

11:13 PM CST on February 06, 2016 (GMT -0600)
Brookside | | Change Station
CLOSE
Current Station
Personal Weather Station
Location: Tulsa, OK
Elevation: 653 ft
Nearby Weather Stations

Elev 653 ft 36.10 °N, 95.98 °W | Updated 3 minutes ago

Mostly Cloudy
Mostly Cloudy
36.5 °F
Feels Like 36 °F
N
0.2
Wind Variable Wind from North
Gusts 0.7 mph

Today
High -- | Low -- °F
--% Chance of Precip.
Yesterday
High -- | Low -- °F
Precip. -- in
Pressure 30.27 in
Visibility 10.0 miles
Clouds Clear
Windchill 36 °F
Dew Point 28 °F
Humidity 72%
Rainfall 0.00 in
Snow Depth Not available.
7:20 AM 5:55 PM
Waning Crescent, 3% visible
METAR KRVS 070453Z 00000KT 10SM CLR 01/M02 A3024 RMK AO2 SLP249 T00111022
Pressure 30.27 in
Visibility 10.0 miles
Clouds Clear
Windchill 36 °F
Dew Point 28 °F
Humidity 72%
Rainfall 0.00 in
Snow Depth Not available.
7:20 AM 5:55 PM
Waning Crescent, 3% visible
METAR KRVS 070453Z 00000KT 10SM CLR 01/M02 A3024 RMK AO2 SLP249 T00111022

10-Day Weather Forecast

Almanac

Astronomy

Feb. 06, 2016 Rise Set
Actual Time
Civil Twilight
Nautical Twilight
Astronomical Twilight
Moon
Length of Visible Light
Length of Day
Tomorrow will be .
, % of the Moon is Illuminated

Today's Extremes

State Highs State Lows

Community

WunderPhotos

Upload Photos

1,891,162 photos uploaded!

WunderBlog® & News

Nearby

Air Quality

  Air Quality AQ Index Pollutant
Not available.

Snow Depth

Station Depth Elevation

Earthquake Activity

City Distance Mag. Time & Date
Minimum magnitude displayed is 2.5.

Coastal Water Temperatures

Place Temperature

Stations

Nearby Weather Stations

Station Location Temp. Windchill Dew Point Humidity Wind Precip. Elev Updated Type
                   

Watches & Warnings

There are currently no watches in effect.